Harbor, Oregon
Current Conditions -  °F | °C
As of 1:56 PM on Saturday 25 Oct 2014 (Local Time) from KBOK Reporting Station
Haze Haze  
Wind Chill: 58°   Ceiling: 2400
Heat Index: 58°   Visibility: 4mi
Dew Point: 55°   Wind: 8mph
Humidity: 90%   Direction: 300°WNW
Pressure: 29.81"   Gusts: NA
Location:  42.224°N, 124.092°W
Report Text: KBOK 252056Z AUTO 30007KT 240V010 4SM BR BKN024 OVC028 14/13 A2981 RMK AO2 53056 60013 T01440127 RAB1958E03 P0000 SLP095
Loading
Personal Weather Stations






























Interactive Weather Map
Tropical Storm Tracking
New forecast layout! Learn more

10-Day Weather Forecast

Advertisements
Track Severe Weather on mobile